createdAt,value
2018-11-03T00:03:06.945Z,84.40
2018-11-03T00:06:40.189Z,84.70
2018-11-03T00:10:13.437Z,85.00
2018-11-03T00:13:46.664Z,85.30
2018-11-03T00:17:19.897Z,85.60
2018-11-03T00:20:53.166Z,85.90
2018-11-03T00:24:26.451Z,86.20
2018-11-03T00:27:59.697Z,86.50
2018-11-03T00:31:32.936Z,86.90
2018-11-03T00:35:06.361Z,87.30
2018-11-03T00:38:39.597Z,87.50
2018-11-03T00:42:13.068Z,87.50
2018-11-03T00:45:46.307Z,87.50
2018-11-03T00:49:19.548Z,87.40
2018-11-03T00:52:52.766Z,87.20
2018-11-03T00:56:25.991Z,86.80
2018-11-03T00:59:59.267Z,86.50
2018-11-03T01:03:32.484Z,86.40
2018-11-03T01:07:05.728Z,86.00
2018-11-03T01:10:38.959Z,85.60
2018-11-03T01:14:12.229Z,85.20
2018-11-03T01:17:45.656Z,85.00
2018-11-03T01:21:18.884Z,84.80
2018-11-03T01:24:52.133Z,84.80
2018-11-03T01:28:25.379Z,84.70
2018-11-03T01:31:58.589Z,84.70
2018-11-03T01:35:31.808Z,84.50
2018-11-03T01:39:08.000Z,84.30
2018-11-03T01:42:41.241Z,84.10
2018-11-03T01:46:14.504Z,83.90
2018-11-03T01:49:47.728Z,84.00
2018-11-03T01:53:20.949Z,83.90
2018-11-03T01:56:54.165Z,84.10
2018-11-03T02:00:27.383Z,84.40
2018-11-03T02:04:00.599Z,84.50
2018-11-03T02:07:33.921Z,84.50
2018-11-03T02:11:07.157Z,84.50
2018-11-03T02:14:40.374Z,84.50
2018-11-03T02:18:13.596Z,84.50
2018-11-03T02:21:46.900Z,84.30
2018-11-03T02:25:20.145Z,84.40
2018-11-03T02:28:53.366Z,84.50
2018-11-03T02:32:26.631Z,84.40
2018-11-03T02:35:59.839Z,84.50
2018-11-03T02:39:33.069Z,84.70
2018-11-03T02:43:06.313Z,85.60
2018-11-03T02:46:39.639Z,84.70
2018-11-03T02:50:13.954Z,84.40
2018-11-03T02:53:47.198Z,84.60
2018-11-03T02:57:20.440Z,84.50
2018-11-03T03:00:53.652Z,84.40
2018-11-03T03:04:26.883Z,84.30
2018-11-03T03:08:00.136Z,84.50
2018-11-03T03:11:33.362Z,84.50
2018-11-03T03:15:07.887Z,84.50
2018-11-03T03:18:41.133Z,84.50
2018-11-03T03:22:14.761Z,84.40
2018-11-03T03:25:47.992Z,84.20
2018-11-03T03:29:21.238Z,84.20
2018-11-03T03:32:54.461Z,83.70
2018-11-03T03:36:27.703Z,83.40
2018-11-03T03:40:00.937Z,83.40
2018-11-03T03:43:34.165Z,83.30
2018-11-03T03:47:07.387Z,83.30
2018-11-03T03:50:40.604Z,83.20
2018-11-03T03:54:13.825Z,83.30
2018-11-03T03:57:47.052Z,83.30
2018-11-03T04:01:21.691Z,83.20
2018-11-03T04:04:56.220Z,83.30
2018-11-03T04:08:29.468Z,83.30
2018-11-03T04:12:02.692Z,83.40
2018-11-03T04:15:35.915Z,83.30
2018-11-03T04:19:09.129Z,83.40
2018-11-03T04:22:42.351Z,83.50
2018-11-03T04:26:15.589Z,83.30
2018-11-03T04:29:48.799Z,83.30
2018-11-03T04:33:22.015Z,83.40
2018-11-03T04:36:55.217Z,83.30
2018-11-03T04:40:28.490Z,83.10
2018-11-03T04:44:01.682Z,83.10
2018-11-03T04:47:34.921Z,83.00
2018-11-03T04:51:08.388Z,82.90
2018-11-03T04:54:41.607Z,82.90
2018-11-03T04:58:14.823Z,82.90
2018-11-03T05:01:48.042Z,83.90
2018-11-03T05:05:21.268Z,82.90
2018-11-03T05:08:54.490Z,82.70
2018-11-03T05:12:27.718Z,83.00
2018-11-03T05:16:00.947Z,83.20
2018-11-03T05:19:34.164Z,83.10
2018-11-03T05:23:07.465Z,83.20
2018-11-03T05:26:40.716Z,83.30
2018-11-03T05:30:13.905Z,83.50
2018-11-03T05:33:47.388Z,83.50
2018-11-03T05:37:20.620Z,83.50
2018-11-03T05:40:54.336Z,83.50
2018-11-03T05:44:32.292Z,83.50
2018-11-03T05:48:06.091Z,83.50
2018-11-03T05:51:39.559Z,83.50
2018-11-03T05:55:13.732Z,83.40
2018-11-03T05:58:47.586Z,83.70
2018-11-03T06:02:21.403Z,83.80
2018-11-03T06:05:54.808Z,83.80
2018-11-03T06:09:28.032Z,83.80
2018-11-03T06:13:01.252Z,83.50
2018-11-03T06:16:34.463Z,83.40
2018-11-03T06:20:07.699Z,83.10
2018-11-03T06:23:40.964Z,83.10
2018-11-03T06:27:14.188Z,83.00
2018-11-03T06:30:47.442Z,83.00
2018-11-03T06:34:20.667Z,82.70
2018-11-03T06:37:53.912Z,82.60
2018-11-03T06:41:27.157Z,82.70
2018-11-03T06:45:00.387Z,82.60
2018-11-03T06:48:33.614Z,82.70
2018-11-03T06:52:06.935Z,82.90
2018-11-03T06:55:40.249Z,82.70
2018-11-03T06:59:13.505Z,82.80
2018-11-03T07:02:46.728Z,83.00
2018-11-03T07:06:19.956Z,83.00
2018-11-03T07:09:53.181Z,82.80
2018-11-03T07:13:26.544Z,82.60
2018-11-03T07:16:59.632Z,82.50
2018-11-03T07:20:32.864Z,82.40
2018-11-03T07:24:06.091Z,82.30
2018-11-03T07:27:39.326Z,82.40
2018-11-03T07:31:12.574Z,82.30
2018-11-03T07:34:45.788Z,82.00
2018-11-03T07:38:19.018Z,81.70
2018-11-03T07:41:52.537Z,81.50
2018-11-03T07:45:25.832Z,81.30
2018-11-03T07:48:59.212Z,80.90
2018-11-03T07:52:32.315Z,80.60
2018-11-03T07:56:05.777Z,80.50
2018-11-03T07:59:39.005Z,80.30
2018-11-03T08:03:12.261Z,79.80
2018-11-03T08:06:45.536Z,79.60
2018-11-03T08:10:18.797Z,79.20
2018-11-03T08:13:52.042Z,79.10
2018-11-03T08:17:25.273Z,79.20
2018-11-03T08:20:58.507Z,79.10
2018-11-03T08:24:31.757Z,78.90
2018-11-03T08:28:05.068Z,78.90
2018-11-03T08:31:38.497Z,78.50
2018-11-03T08:35:12.232Z,78.40
2018-11-03T08:38:45.463Z,78.60
2018-11-03T08:42:18.714Z,78.40
2018-11-03T08:45:51.941Z,78.20
2018-11-03T08:49:25.168Z,77.90
2018-11-03T08:52:58.415Z,77.00
2018-11-03T08:56:31.673Z,76.80
2018-11-03T09:00:07.875Z,76.10
2018-11-03T09:03:41.044Z,75.70
2018-11-03T09:07:14.284Z,75.40
2018-11-03T09:10:47.536Z,74.80
2018-11-03T09:14:20.933Z,74.20
2018-11-03T09:17:54.172Z,74.00
2018-11-03T09:21:27.476Z,73.80
2018-11-03T09:25:00.660Z,74.00
2018-11-03T09:28:33.961Z,73.60
2018-11-03T09:32:07.193Z,73.10
2018-11-03T09:35:40.426Z,72.60
2018-11-03T09:39:13.727Z,72.20
2018-11-03T09:42:47.639Z,71.80
2018-11-03T09:46:20.883Z,72.00
2018-11-03T09:49:54.141Z,72.00
2018-11-03T09:53:27.379Z,71.70
2018-11-03T09:57:00.617Z,71.70
2018-11-03T10:00:33.854Z,71.50
2018-11-03T10:04:07.098Z,71.40
2018-11-03T10:07:40.357Z,71.00
2018-11-03T10:11:13.597Z,70.90
2018-11-03T10:14:47.133Z,71.00
2018-11-03T10:18:20.377Z,70.80
2018-11-03T10:21:53.609Z,70.50
2018-11-03T10:25:27.000Z,70.90
2018-11-03T10:29:00.237Z,70.80
2018-11-03T10:32:33.475Z,70.40
2018-11-03T10:36:06.725Z,70.20
2018-11-03T10:39:39.965Z,70.00
2018-11-03T10:43:13.213Z,70.10
2018-11-03T10:46:46.459Z,69.90
2018-11-03T10:50:19.793Z,69.60
2018-11-03T10:53:53.045Z,69.10
2018-11-03T10:57:26.281Z,69.40
2018-11-03T11:01:04.849Z,68.80
2018-11-03T11:04:43.610Z,68.40
2018-11-03T11:08:22.325Z,68.20
2018-11-03T11:12:01.077Z,67.80
2018-11-03T11:15:34.349Z,67.70
2018-11-03T11:19:07.569Z,68.00
2018-11-03T11:22:40.800Z,67.40
2018-11-03T11:26:14.041Z,67.40
2018-11-03T11:29:47.291Z,67.10
2018-11-03T11:33:20.536Z,66.70
2018-11-03T11:36:53.776Z,66.60
2018-11-03T11:40:27.031Z,66.60
2018-11-03T11:44:00.265Z,66.50
2018-11-03T11:47:33.504Z,66.20
2018-11-03T11:51:06.745Z,66.00
2018-11-03T11:54:40.029Z,65.60
2018-11-03T11:58:13.223Z,65.70
2018-11-03T12:01:46.471Z,65.60
2018-11-03T12:05:19.713Z,65.40
2018-11-03T12:08:52.960Z,65.60
2018-11-03T12:12:26.194Z,65.20
2018-11-03T12:15:59.464Z,65.20
2018-11-03T12:19:32.679Z,65.30
2018-11-03T12:23:05.923Z,65.30
2018-11-03T12:26:39.192Z,65.00
2018-11-03T12:30:14.585Z,64.80
2018-11-03T12:33:47.823Z,64.70
2018-11-03T12:37:21.079Z,64.60
2018-11-03T12:40:54.396Z,64.70
2018-11-03T12:44:27.547Z,64.90
2018-11-03T12:48:00.853Z,65.00
2018-11-03T12:51:34.300Z,64.90
2018-11-03T12:55:08.601Z,64.70
2018-11-03T12:58:41.852Z,64.80
2018-11-03T13:02:15.103Z,64.90
2018-11-03T13:05:48.356Z,64.90
2018-11-03T13:09:21.687Z,64.80
2018-11-03T13:12:54.858Z,64.50
2018-11-03T13:16:28.194Z,64.20
2018-11-03T13:20:01.413Z,64.30
2018-11-03T13:23:34.647Z,64.40
2018-11-03T13:27:07.931Z,64.50
2018-11-03T13:30:41.260Z,64.20
2018-11-03T13:34:14.493Z,63.90
2018-11-03T13:37:47.717Z,63.90
2018-11-03T13:41:20.957Z,64.20
2018-11-03T13:44:54.193Z,64.30
2018-11-03T13:48:27.431Z,64.70
2018-11-03T13:52:00.659Z,64.80
2018-11-03T13:55:33.943Z,64.80
2018-11-03T13:59:07.146Z,64.90
2018-11-03T14:02:41.249Z,65.20
2018-11-03T14:06:14.520Z,65.40
2018-11-03T14:09:47.746Z,66.10
2018-11-03T14:13:20.987Z,65.20
2018-11-03T14:16:54.237Z,65.20
2018-11-03T14:20:27.477Z,65.50
2018-11-03T14:24:00.791Z,65.70
2018-11-03T14:27:34.108Z,66.00
2018-11-03T14:31:07.401Z,66.30
2018-11-03T14:34:40.634Z,66.60
2018-11-03T14:38:13.875Z,66.90
2018-11-03T14:41:47.109Z,67.20
2018-11-03T14:45:20.399Z,67.40
2018-11-03T14:48:53.642Z,67.90
2018-11-03T14:52:26.851Z,67.80
2018-11-03T14:56:00.086Z,67.90
2018-11-03T14:59:33.391Z,68.10
2018-11-03T15:03:07.255Z,68.10
2018-11-03T15:06:40.625Z,68.20
2018-11-03T15:10:14.352Z,68.10
2018-11-03T15:13:47.710Z,68.30
2018-11-03T15:17:20.896Z,66.40
2018-11-03T15:20:54.144Z,66.00
2018-11-03T15:24:27.391Z,65.90
2018-11-03T15:28:00.641Z,65.80
2018-11-03T15:31:33.863Z,66.10
2018-11-03T15:35:07.420Z,66.90
2018-11-03T15:38:40.604Z,67.60
2018-11-03T15:42:14.313Z,67.90
2018-11-03T15:45:47.555Z,68.30
2018-11-03T15:49:20.835Z,68.60
2018-11-03T15:52:54.102Z,69.10
2018-11-03T15:56:27.332Z,69.70
2018-11-03T16:00:00.571Z,70.00
2018-11-03T16:03:33.804Z,70.30
2018-11-03T16:07:07.029Z,70.40
2018-11-03T16:10:40.276Z,70.50
2018-11-03T16:14:13.542Z,70.60
2018-11-03T16:17:46.788Z,70.90
2018-11-03T16:21:20.040Z,71.10
2018-11-03T16:24:53.283Z,71.40
2018-11-03T16:28:26.665Z,71.70
2018-11-03T16:31:59.875Z,71.90
2018-11-03T16:35:33.144Z,72.00
2018-11-03T16:39:08.724Z,72.30
2018-11-03T16:42:42.637Z,72.70
2018-11-03T16:46:15.879Z,73.00
2018-11-03T16:49:49.120Z,73.10
2018-11-03T16:53:22.360Z,73.30
2018-11-03T16:56:55.639Z,73.40
2018-11-03T17:00:28.860Z,73.40
2018-11-03T17:04:02.141Z,73.60
2018-11-03T17:07:35.403Z,73.70
2018-11-03T17:11:08.651Z,73.80
2018-11-03T17:14:42.018Z,74.00
2018-11-03T17:18:15.268Z,74.10
2018-11-03T17:21:48.508Z,74.20
2018-11-03T17:25:21.878Z,74.30
2018-11-03T17:28:55.068Z,74.40
2018-11-03T17:32:28.364Z,74.50
2018-11-03T17:36:01.677Z,75.40
2018-11-03T17:39:34.900Z,74.80
2018-11-03T17:43:08.210Z,74.90
2018-11-03T17:46:41.490Z,74.90
2018-11-03T17:50:14.757Z,74.90
2018-11-03T17:53:48.000Z,75.00
2018-11-03T17:57:21.224Z,75.10
2018-11-03T18:00:54.588Z,75.40
2018-11-03T18:04:28.121Z,75.50
2018-11-03T18:08:01.366Z,75.60
2018-11-03T18:11:34.620Z,75.70
2018-11-03T18:15:08.264Z,75.90
2018-11-03T18:18:41.479Z,76.10
2018-11-03T18:22:14.720Z,76.30
2018-11-03T18:25:48.023Z,76.40
2018-11-03T18:29:21.264Z,76.50
2018-11-03T18:32:54.565Z,76.60
2018-11-03T18:36:27.853Z,76.70
2018-11-03T18:40:01.120Z,76.70
2018-11-03T18:43:34.460Z,76.90
2018-11-03T18:47:07.689Z,77.00
2018-11-03T18:50:40.929Z,77.20
2018-11-03T18:54:14.148Z,77.30
2018-11-03T18:57:47.996Z,77.60
2018-11-03T19:01:21.249Z,78.10
2018-11-03T19:04:54.484Z,78.50
2018-11-03T19:08:27.744Z,78.70
2018-11-03T19:12:01.922Z,78.90
2018-11-03T19:15:35.144Z,79.00
2018-11-03T19:19:08.375Z,79.00
2018-11-03T19:22:41.659Z,79.20
2018-11-03T19:26:14.896Z,79.30
2018-11-03T19:29:49.053Z,79.30
2018-11-03T19:33:22.248Z,79.30
2018-11-03T19:36:55.509Z,79.50
2018-11-03T19:40:28.831Z,79.60
2018-11-03T19:44:02.077Z,79.70
2018-11-03T19:47:35.424Z,79.90
2018-11-03T19:51:08.658Z,80.00
2018-11-03T19:54:41.989Z,80.90
2018-11-03T19:58:15.228Z,80.40
2018-11-03T20:01:48.872Z,80.50
2018-11-03T20:05:22.089Z,80.70
2018-11-03T20:08:55.336Z,80.80
2018-11-03T20:12:28.659Z,80.90
2018-11-03T20:16:02.100Z,81.00
2018-11-03T20:19:35.311Z,81.10
2018-11-03T20:23:08.543Z,81.10
2018-11-03T20:26:41.879Z,81.20
2018-11-03T20:30:16.502Z,81.20
2018-11-03T20:33:49.765Z,81.30
2018-11-03T20:37:23.007Z,81.50
2018-11-03T20:40:56.231Z,81.60
2018-11-03T20:44:29.487Z,81.70
2018-11-03T20:48:02.747Z,81.80
2018-11-03T20:51:36.021Z,81.80
2018-11-03T20:55:09.979Z,82.00
2018-11-03T20:58:43.229Z,82.10
2018-11-03T21:02:16.557Z,82.20
2018-11-03T21:05:49.780Z,82.30
2018-11-03T21:09:23.008Z,82.30
2018-11-03T21:12:56.239Z,82.20
2018-11-03T21:16:29.616Z,82.30
2018-11-03T21:20:02.791Z,82.30
2018-11-03T21:23:36.095Z,82.40
2018-11-03T21:27:10.512Z,82.50
2018-11-03T21:30:43.729Z,82.40
2018-11-03T21:34:16.945Z,82.50
2018-11-03T21:37:50.163Z,82.50
2018-11-03T21:41:23.698Z,82.50
2018-11-03T21:44:56.945Z,82.50
2018-11-03T21:48:30.159Z,82.40
2018-11-03T21:52:03.367Z,82.50
2018-11-03T21:55:36.594Z,82.50
2018-11-03T21:59:09.887Z,82.60
2018-11-03T22:02:43.416Z,82.70
2018-11-03T22:06:16.629Z,82.80
2018-11-03T22:09:49.868Z,82.90
2018-11-03T22:13:23.092Z,83.00
2018-11-03T22:16:56.304Z,83.10
2018-11-03T22:20:29.531Z,83.20
2018-11-03T22:24:03.020Z,83.30
2018-11-03T22:27:36.716Z,83.30
2018-11-03T22:31:09.957Z,83.30
2018-11-03T22:34:43.188Z,83.30
2018-11-03T22:38:16.413Z,83.30
2018-11-03T22:41:49.618Z,83.40
2018-11-03T22:45:22.850Z,83.50
2018-11-03T22:48:56.194Z,83.50
2018-11-03T22:52:29.474Z,83.70
2018-11-03T22:56:02.664Z,83.60
2018-11-03T22:59:35.956Z,83.80
2018-11-03T23:03:09.196Z,83.70
2018-11-03T23:06:42.435Z,83.60
2018-11-03T23:10:15.647Z,84.40
2018-11-03T23:13:48.924Z,83.50
2018-11-03T23:17:22.153Z,83.50
2018-11-03T23:20:55.367Z,83.50
2018-11-03T23:24:28.588Z,83.50
2018-11-03T23:28:01.813Z,83.50
2018-11-03T23:31:35.086Z,83.70
2018-11-03T23:35:10.485Z,83.80
2018-11-03T23:38:43.701Z,83.90
2018-11-03T23:42:17.036Z,84.00
2018-11-03T23:45:50.261Z,84.10
2018-11-03T23:49:23.488Z,84.20
2018-11-03T23:52:56.711Z,84.20
2018-11-03T23:56:30.181Z,84.30
